createdAt,value
2019-03-21T00:01:45.022Z,97.43
2019-03-21T00:04:14.967Z,97.42
2019-03-21T00:06:43.594Z,98.47
2019-03-21T00:09:17.323Z,96.96
2019-03-21T00:12:06.555Z,97.79
2019-03-21T00:14:41.140Z,99.12
2019-03-21T00:17:15.830Z,99.13
2019-03-21T00:19:44.455Z,96.22
2019-03-21T00:22:12.848Z,98.80
2019-03-21T00:24:41.261Z,98.84
2019-03-21T00:27:09.652Z,99.50
2019-03-21T00:29:38.299Z,100.00
2019-03-21T00:32:06.950Z,98.97
2019-03-21T00:34:35.344Z,100.00
2019-03-21T00:37:03.731Z,99.72
2019-03-21T00:39:33.233Z,100.00
2019-03-21T00:42:01.648Z,98.38
2019-03-21T00:44:30.032Z,100.00
2019-03-21T00:46:58.683Z,100.00
2019-03-21T00:49:27.307Z,100.00
2019-03-21T00:51:55.980Z,100.00
2019-03-21T00:54:24.381Z,100.00
2019-03-21T00:56:52.771Z,100.00
2019-03-21T00:59:21.402Z,100.00
2019-03-21T01:01:49.808Z,100.00
2019-03-21T01:04:18.627Z,100.00
2019-03-21T01:06:47.017Z,100.00
2019-03-21T01:09:16.431Z,100.00
2019-03-21T01:11:44.823Z,100.00
2019-03-21T01:14:13.443Z,100.00
2019-03-21T01:16:41.857Z,100.00
2019-03-21T01:19:10.242Z,100.00
2019-03-21T01:21:38.627Z,100.00
2019-03-21T01:24:07.280Z,100.00
2019-03-21T01:26:35.668Z,100.00
2019-03-21T01:29:04.062Z,100.00
2019-03-21T01:31:32.473Z,100.00
2019-03-21T01:34:01.103Z,100.00
2019-03-21T01:36:29.689Z,100.00
2019-03-21T01:38:58.060Z,100.00
2019-03-21T01:41:26.443Z,100.00
2019-03-21T01:43:55.070Z,100.00
2019-03-21T01:46:25.948Z,100.00
2019-03-21T01:48:54.340Z,100.00
2019-03-21T01:51:22.965Z,100.00
2019-03-21T01:53:52.055Z,100.00
2019-03-21T01:56:20.676Z,100.00
2019-03-21T01:58:49.380Z,100.00
2019-03-21T02:01:17.784Z,100.00
2019-03-21T02:03:46.175Z,100.00
2019-03-21T02:06:14.798Z,100.00
2019-03-21T02:08:43.202Z,100.00
2019-03-21T02:11:11.593Z,100.00
2019-03-21T02:13:39.979Z,100.00
2019-03-21T02:16:08.385Z,100.00
2019-03-21T02:18:36.774Z,100.00
2019-03-21T02:21:05.161Z,100.00
2019-03-21T02:23:33.795Z,100.00
2019-03-21T02:26:02.180Z,100.00
2019-03-21T02:28:30.574Z,100.00
2019-03-21T02:30:59.229Z,100.00
2019-03-21T02:33:32.891Z,100.00
2019-03-21T02:36:03.117Z,100.00
2019-03-21T02:38:31.525Z,100.00
2019-03-21T02:41:03.780Z,100.00
2019-03-21T02:43:32.161Z,100.00
2019-03-21T02:46:00.572Z,100.00
2019-03-21T02:48:29.667Z,100.00
2019-03-21T02:50:58.313Z,100.00
2019-03-21T02:53:26.721Z,100.00
2019-03-21T02:55:55.108Z,100.00
2019-03-21T02:58:23.504Z,100.00
2019-03-21T03:00:51.955Z,100.00
2019-03-21T03:03:20.588Z,100.00
2019-03-21T03:05:48.966Z,100.00
2019-03-21T03:08:17.370Z,100.00
2019-03-21T03:10:48.783Z,100.00
2019-03-21T03:13:17.425Z,100.00
2019-03-21T03:15:45.834Z,100.00
2019-03-21T03:18:16.992Z,100.00
2019-03-21T03:20:45.385Z,100.00
2019-03-21T03:23:14.017Z,100.00
2019-03-21T03:25:42.408Z,100.00
2019-03-21T03:28:28.333Z,100.00
2019-03-21T03:30:58.283Z,100.00
2019-03-21T03:33:27.234Z,100.00
2019-03-21T03:35:55.646Z,100.00
2019-03-21T03:38:24.081Z,100.00
2019-03-21T03:41:09.817Z,100.00
2019-03-21T03:43:38.461Z,100.00
2019-03-21T03:46:07.078Z,100.00
2019-03-21T03:48:35.461Z,100.00
2019-03-21T03:51:04.090Z,100.00
2019-03-21T03:53:32.480Z,100.00
2019-03-21T03:56:01.114Z,100.00
2019-03-21T03:58:38.214Z,100.00
2019-03-21T04:01:06.598Z,100.00
2019-03-21T04:03:35.057Z,100.00
2019-03-21T04:06:03.528Z,100.00
2019-03-21T04:08:32.151Z,100.00
2019-03-21T04:11:00.718Z,100.00
2019-03-21T04:13:29.350Z,100.00
2019-03-21T04:15:57.737Z,100.00
2019-03-21T04:18:26.302Z,100.00
2019-03-21T04:21:09.007Z,100.00
2019-03-21T04:23:37.643Z,100.00
2019-03-21T04:26:11.907Z,100.00
2019-03-21T04:28:40.955Z,100.00
2019-03-21T04:31:09.342Z,100.00
2019-03-21T04:33:37.745Z,100.00
2019-03-21T04:36:06.132Z,100.00
2019-03-21T04:38:34.526Z,100.00
2019-03-21T04:41:02.950Z,100.00
2019-03-21T04:43:31.571Z,100.00
2019-03-21T04:46:03.720Z,100.00
2019-03-21T04:48:30.080Z,100.00
2019-03-21T04:50:58.708Z,100.00
2019-03-21T04:53:27.343Z,100.00
2019-03-21T04:55:55.973Z,100.00
2019-03-21T04:58:24.609Z,100.00
2019-03-21T05:00:58.375Z,100.00
2019-03-21T05:03:30.153Z,100.00
2019-03-21T05:05:58.846Z,100.00
2019-03-21T05:08:27.168Z,100.00
2019-03-21T05:10:55.564Z,100.00
2019-03-21T05:13:23.957Z,100.00
2019-03-21T05:15:54.136Z,100.00
2019-03-21T05:18:46.774Z,100.00
2019-03-21T05:21:18.707Z,100.00
2019-03-21T05:23:47.097Z,100.00
2019-03-21T05:26:15.739Z,100.00
2019-03-21T05:28:44.436Z,100.00
2019-03-21T05:31:30.292Z,100.00
2019-03-21T05:33:58.673Z,100.00
2019-03-21T05:36:27.132Z,100.00
2019-03-21T05:38:55.581Z,100.00
2019-03-21T05:41:24.285Z,100.00
2019-03-21T05:44:07.603Z,100.00
2019-03-21T05:46:35.993Z,100.00
2019-03-21T05:49:04.390Z,99.18
2019-03-21T05:51:32.773Z,99.93
2019-03-21T05:54:01.170Z,98.22
2019-03-21T05:56:29.552Z,98.26
2019-03-21T05:58:57.947Z,97.61
2019-03-21T06:01:26.391Z,97.26
2019-03-21T06:03:55.030Z,95.68
2019-03-21T06:06:41.521Z,97.53
2019-03-21T06:09:23.269Z,95.27
2019-03-21T06:12:03.174Z,94.76
2019-03-21T06:14:37.436Z,96.13
2019-03-21T06:17:05.882Z,94.64
2019-03-21T06:19:43.243Z,98.30
2019-03-21T06:22:34.104Z,95.84
2019-03-21T06:25:30.872Z,95.82
2019-03-21T06:27:59.496Z,95.76
2019-03-21T06:30:28.131Z,93.85
2019-03-21T06:32:56.541Z,92.41
2019-03-21T06:35:24.912Z,92.31
2019-03-21T06:37:53.541Z,92.98
2019-03-21T06:40:21.998Z,92.20
2019-03-21T06:42:50.711Z,91.10
2019-03-21T06:45:19.094Z,90.45
2019-03-21T06:47:47.492Z,90.09
2019-03-21T06:50:16.186Z,89.50
2019-03-21T06:52:44.597Z,90.77
2019-03-21T06:55:13.006Z,91.83
2019-03-21T06:57:41.401Z,93.34
2019-03-21T07:00:11.228Z,86.65
2019-03-21T07:02:39.627Z,85.87
2019-03-21T07:05:08.403Z,83.54
2019-03-21T07:07:37.027Z,81.92
2019-03-21T07:10:08.376Z,82.20
2019-03-21T07:12:36.759Z,84.30
2019-03-21T07:15:10.996Z,83.56
2019-03-21T07:17:39.387Z,80.58
2019-03-21T07:20:10.230Z,82.03
2019-03-21T07:22:38.740Z,82.45
2019-03-21T07:25:08.585Z,80.30
2019-03-21T07:27:37.053Z,78.93
2019-03-21T07:30:08.622Z,78.16
2019-03-21T07:32:37.016Z,81.08
2019-03-21T07:35:07.389Z,78.43
2019-03-21T07:37:35.795Z,77.72
2019-03-21T07:40:07.475Z,77.89
2019-03-21T07:42:35.916Z,76.62
2019-03-21T07:45:06.143Z,76.70
2019-03-21T07:47:34.779Z,77.06
2019-03-21T07:50:03.263Z,76.76
2019-03-21T07:52:31.911Z,77.00
2019-03-21T07:55:00.550Z,77.25
2019-03-21T07:57:28.935Z,76.64
2019-03-21T07:59:57.588Z,72.26
2019-03-21T08:02:26.225Z,73.23
2019-03-21T08:04:54.639Z,73.05
2019-03-21T08:07:23.260Z,68.63
2019-03-21T08:09:51.647Z,65.44
2019-03-21T08:12:20.049Z,68.64
2019-03-21T08:14:48.440Z,63.85
2019-03-21T08:17:16.836Z,62.80
2019-03-21T08:19:45.449Z,66.85
2019-03-21T08:22:13.828Z,63.42
2019-03-21T08:24:42.455Z,61.44
2019-03-21T08:27:10.834Z,61.47
2019-03-21T08:29:39.228Z,64.08
2019-03-21T08:32:07.608Z,61.86
2019-03-21T08:34:36.237Z,61.76
2019-03-21T08:37:04.636Z,60.48
2019-03-21T08:39:33.241Z,62.37
2019-03-21T08:42:01.877Z,61.00
2019-03-21T08:44:30.258Z,58.48
2019-03-21T08:46:58.654Z,57.52
2019-03-21T08:49:27.285Z,60.12
2019-03-21T08:51:55.658Z,57.38
2019-03-21T08:54:24.051Z,59.47
2019-03-21T08:56:52.667Z,55.63
2019-03-21T08:59:21.539Z,56.79
2019-03-21T09:01:49.924Z,58.12
2019-03-21T09:04:18.303Z,54.46
2019-03-21T09:06:46.695Z,55.37
2019-03-21T09:09:15.316Z,55.51
2019-03-21T09:11:43.966Z,54.24
2019-03-21T09:14:12.578Z,55.65
2019-03-21T09:16:41.021Z,55.11
2019-03-21T09:19:09.595Z,55.76
2019-03-21T09:21:37.978Z,53.97
2019-03-21T09:24:06.379Z,53.60
2019-03-21T09:26:34.764Z,53.75
2019-03-21T09:29:03.144Z,54.30
2019-03-21T09:31:31.534Z,54.65
2019-03-21T09:33:59.921Z,54.96
2019-03-21T09:36:28.549Z,54.87
2019-03-21T09:38:56.931Z,52.80
2019-03-21T09:41:25.545Z,53.48
2019-03-21T09:43:53.939Z,54.03
2019-03-21T09:46:22.559Z,52.12
2019-03-21T09:48:50.954Z,53.51
2019-03-21T09:51:30.338Z,51.83
2019-03-21T09:53:49.958Z,52.84
2019-03-21T09:56:18.416Z,53.49
2019-03-21T09:58:47.037Z,53.35
2019-03-21T10:01:15.684Z,52.99
2019-03-21T10:03:44.123Z,52.66
2019-03-21T10:06:12.525Z,53.00
2019-03-21T10:08:40.923Z,52.68
2019-03-21T10:11:09.317Z,53.11
2019-03-21T10:13:37.956Z,51.85
2019-03-21T10:16:06.588Z,51.96
2019-03-21T10:18:35.224Z,50.88
2019-03-21T10:21:03.924Z,51.94
2019-03-21T10:23:32.311Z,51.38
2019-03-21T10:26:00.957Z,50.30
2019-03-21T10:28:29.347Z,47.33
2019-03-21T10:30:57.998Z,48.16
2019-03-21T10:33:26.390Z,49.02
2019-03-21T10:35:55.100Z,47.79
2019-03-21T10:38:23.500Z,45.58
2019-03-21T10:40:51.886Z,45.81
2019-03-21T10:43:20.524Z,43.16
2019-03-21T10:45:49.147Z,41.25
2019-03-21T10:48:17.770Z,42.17
2019-03-21T10:50:46.173Z,41.20
2019-03-21T10:53:14.558Z,42.20
2019-03-21T10:55:42.954Z,42.50
2019-03-21T10:58:11.583Z,41.72
2019-03-21T11:00:40.342Z,39.94
2019-03-21T11:03:09.170Z,40.67
2019-03-21T11:05:37.619Z,41.17
2019-03-21T11:08:06.686Z,39.73
2019-03-21T11:10:35.152Z,39.94
2019-03-21T11:13:04.150Z,41.55
2019-03-21T11:15:32.851Z,39.97
2019-03-21T11:18:01.300Z,39.97
2019-03-21T11:20:31.572Z,39.94
2019-03-21T11:22:59.953Z,39.21
2019-03-21T11:25:28.648Z,40.05
2019-03-21T11:27:57.111Z,39.47
2019-03-21T11:30:33.684Z,39.51
2019-03-21T11:33:02.671Z,38.45
2019-03-21T11:35:31.634Z,38.45
2019-03-21T11:38:00.037Z,38.27
2019-03-21T11:40:28.557Z,38.04
2019-03-21T11:42:57.767Z,38.04
2019-03-21T11:45:26.232Z,36.38
2019-03-21T11:47:54.617Z,36.63
2019-03-21T11:50:23.261Z,38.14
2019-03-21T11:52:51.692Z,37.91
2019-03-21T11:55:20.151Z,37.45
2019-03-21T11:57:48.834Z,38.32
2019-03-21T12:00:17.554Z,37.65
2019-03-21T12:02:46.032Z,37.65
2019-03-21T12:05:14.426Z,36.79
2019-03-21T12:07:43.062Z,39.86
2019-03-21T12:10:12.655Z,39.86
2019-03-21T12:12:41.039Z,38.60
2019-03-21T12:15:10.977Z,41.22
2019-03-21T12:17:39.603Z,39.21
2019-03-21T12:20:12.916Z,39.06
2019-03-21T12:22:41.300Z,38.11
2019-03-21T12:25:10.663Z,38.08
2019-03-21T12:27:39.056Z,39.38
2019-03-21T12:30:10.580Z,39.61
2019-03-21T12:32:39.211Z,37.78
2019-03-21T12:35:08.277Z,34.64
2019-03-21T12:37:36.656Z,37.18
2019-03-21T12:40:09.194Z,38.52
2019-03-21T12:42:37.830Z,38.52
2019-03-21T12:45:10.233Z,37.37
2019-03-21T12:47:38.613Z,37.97
2019-03-21T12:50:08.667Z,37.40
2019-03-21T12:52:41.527Z,37.36
2019-03-21T12:55:07.927Z,37.80
2019-03-21T12:57:36.323Z,37.56
2019-03-21T13:00:09.998Z,37.50
2019-03-21T13:02:38.407Z,37.21
2019-03-21T13:05:08.852Z,36.40
2019-03-21T13:07:37.485Z,37.66
2019-03-21T13:10:06.904Z,37.66
2019-03-21T13:12:35.312Z,36.58
2019-03-21T13:15:05.010Z,37.50
2019-03-21T13:17:33.455Z,37.07
2019-03-21T13:20:01.846Z,35.64
2019-03-21T13:22:30.468Z,35.64
2019-03-21T13:24:59.115Z,37.27
2019-03-21T13:27:27.501Z,36.74
2019-03-21T13:29:56.129Z,37.83
2019-03-21T13:32:24.582Z,36.02
2019-03-21T13:34:53.202Z,36.02
2019-03-21T13:37:21.839Z,36.29
2019-03-21T13:39:50.222Z,37.42
2019-03-21T13:42:18.850Z,37.42
2019-03-21T13:44:47.490Z,35.24
2019-03-21T13:47:15.873Z,35.24
2019-03-21T13:49:44.507Z,35.84
2019-03-21T13:52:13.122Z,36.41
2019-03-21T13:54:41.510Z,35.62
2019-03-21T13:57:09.902Z,35.32
2019-03-21T13:59:38.793Z,35.32
2019-03-21T14:02:07.195Z,35.90
2019-03-21T14:04:35.588Z,35.90
2019-03-21T14:07:04.416Z,35.01
2019-03-21T14:09:33.011Z,35.01
2019-03-21T14:12:01.392Z,35.47
2019-03-21T14:14:30.029Z,35.71
2019-03-21T14:16:58.646Z,35.07
2019-03-21T14:19:27.028Z,35.33
2019-03-21T14:21:55.667Z,34.12
2019-03-21T14:24:24.057Z,34.96
2019-03-21T14:26:52.690Z,34.96
2019-03-21T14:29:21.316Z,36.08
2019-03-21T14:31:49.941Z,35.96
2019-03-21T14:34:18.571Z,35.27
2019-03-21T14:36:46.952Z,36.85
2019-03-21T14:39:15.597Z,34.98
2019-03-21T14:41:44.217Z,34.89
2019-03-21T14:44:12.839Z,33.52
2019-03-21T14:46:41.230Z,34.58
2019-03-21T14:49:09.614Z,33.94
2019-03-21T14:51:38.015Z,35.49
2019-03-21T14:54:06.395Z,34.68
2019-03-21T14:56:34.776Z,33.50
2019-03-21T14:59:03.407Z,34.58
2019-03-21T15:01:32.027Z,33.84
2019-03-21T15:04:00.664Z,33.77
2019-03-21T15:06:29.287Z,33.77
2019-03-21T15:08:57.912Z,34.26
2019-03-21T15:11:27.372Z,33.23
2019-03-21T15:13:56.005Z,36.48
2019-03-21T15:16:24.405Z,36.48
2019-03-21T15:18:53.028Z,36.79
2019-03-21T15:21:21.651Z,38.90
2019-03-21T15:23:58.906Z,38.90
2019-03-21T15:26:20.158Z,37.95
2019-03-21T15:28:48.560Z,39.08
2019-03-21T15:31:16.999Z,37.91
2019-03-21T15:33:45.436Z,38.37
2019-03-21T15:36:14.081Z,38.84
2019-03-21T15:38:42.699Z,38.17
2019-03-21T15:41:11.112Z,40.24
2019-03-21T15:43:39.501Z,39.47
2019-03-21T15:46:07.941Z,38.45
2019-03-21T15:48:36.340Z,39.74
2019-03-21T15:51:05.242Z,39.83
2019-03-21T15:53:33.611Z,39.83
2019-03-21T15:56:02.226Z,38.68
2019-03-21T15:58:30.856Z,40.20
2019-03-21T16:00:59.252Z,40.15
2019-03-21T16:03:27.873Z,39.16
2019-03-21T16:05:56.517Z,38.92
2019-03-21T16:08:27.263Z,39.74
2019-03-21T16:10:55.252Z,40.17
2019-03-21T16:13:23.887Z,38.90
2019-03-21T16:15:52.268Z,40.77
2019-03-21T16:18:20.664Z,40.43
2019-03-21T16:20:49.289Z,41.41
2019-03-21T16:23:17.679Z,39.70
2019-03-21T16:25:48.478Z,41.32
2019-03-21T16:28:16.668Z,40.16
2019-03-21T16:30:45.231Z,40.91
2019-03-21T16:33:13.814Z,41.17
2019-03-21T16:35:42.247Z,40.62
2019-03-21T16:38:10.627Z,40.12
2019-03-21T16:40:39.259Z,40.12
2019-03-21T16:43:07.639Z,41.14
2019-03-21T16:45:36.043Z,41.81
2019-03-21T16:48:04.843Z,42.88
2019-03-21T16:50:33.238Z,42.88
2019-03-21T16:53:01.627Z,41.70
2019-03-21T16:55:30.009Z,41.48
2019-03-21T16:57:58.402Z,42.33
2019-03-21T17:00:26.908Z,42.33
2019-03-21T17:02:55.918Z,42.71
2019-03-21T17:05:24.559Z,42.27
2019-03-21T17:07:52.940Z,41.86
2019-03-21T17:10:21.443Z,41.86
2019-03-21T17:12:50.011Z,41.90
2019-03-21T17:15:18.402Z,42.01
2019-03-21T17:17:46.827Z,42.97
2019-03-21T17:20:15.440Z,42.83
2019-03-21T17:22:43.915Z,42.83
2019-03-21T17:25:12.860Z,43.31
2019-03-21T17:27:41.335Z,43.20
2019-03-21T17:30:12.991Z,44.24
2019-03-21T17:32:41.629Z,44.24
2019-03-21T17:35:10.494Z,44.81
2019-03-21T17:37:38.957Z,46.21
2019-03-21T17:40:09.583Z,45.55
2019-03-21T17:42:38.201Z,46.03
2019-03-21T17:45:10.034Z,49.35
2019-03-21T17:47:38.733Z,47.66
2019-03-21T17:50:08.350Z,47.66
2019-03-21T17:52:36.757Z,49.03
2019-03-21T17:55:07.121Z,49.83
2019-03-21T17:57:35.744Z,50.50
2019-03-21T18:00:07.192Z,49.36
2019-03-21T18:02:35.947Z,51.89
2019-03-21T18:05:06.834Z,48.76
2019-03-21T18:07:35.216Z,51.99
2019-03-21T18:10:05.933Z,52.13
2019-03-21T18:12:34.571Z,51.04
2019-03-21T18:15:03.133Z,48.94
2019-03-21T18:17:31.618Z,50.53
2019-03-21T18:20:00.506Z,48.16
2019-03-21T18:22:28.933Z,50.30
2019-03-21T18:24:57.322Z,49.44
2019-03-21T18:27:25.777Z,50.73
2019-03-21T18:29:54.166Z,51.19
2019-03-21T18:32:22.856Z,51.59
2019-03-21T18:34:51.500Z,48.98
2019-03-21T18:37:19.939Z,49.43
2019-03-21T18:39:48.631Z,49.02
2019-03-21T18:42:17.017Z,50.44
2019-03-21T18:44:45.394Z,49.11
2019-03-21T18:47:14.021Z,50.55
2019-03-21T18:49:42.404Z,51.80
2019-03-21T18:52:11.032Z,50.15
2019-03-21T18:54:39.411Z,52.75
2019-03-21T18:57:08.031Z,52.48
2019-03-21T18:59:36.669Z,48.87
2019-03-21T19:02:05.046Z,49.84
2019-03-21T19:04:33.682Z,51.91
2019-03-21T19:07:02.396Z,50.83
2019-03-21T19:09:31.095Z,51.37
2019-03-21T19:11:59.563Z,52.06
2019-03-21T19:14:27.942Z,50.60
2019-03-21T19:16:56.330Z,52.61
2019-03-21T19:19:24.949Z,53.55
2019-03-21T19:21:53.406Z,52.36
2019-03-21T19:24:22.035Z,50.18
2019-03-21T19:26:50.409Z,51.06
2019-03-21T19:29:18.804Z,52.96
2019-03-21T19:31:47.444Z,53.19
2019-03-21T19:34:16.074Z,54.59
2019-03-21T19:36:44.693Z,53.76
2019-03-21T19:39:13.071Z,54.75
2019-03-21T19:41:41.710Z,54.12
2019-03-21T19:44:10.326Z,52.11
2019-03-21T19:46:38.730Z,51.94
2019-03-21T19:49:07.342Z,55.22
2019-03-21T19:51:36.026Z,54.47
2019-03-21T19:54:04.956Z,56.42
2019-03-21T19:56:33.572Z,58.61
2019-03-21T19:59:02.041Z,58.91
2019-03-21T20:01:30.422Z,59.67
2019-03-21T20:03:59.057Z,61.14
2019-03-21T20:06:27.677Z,60.63
2019-03-21T20:08:56.975Z,61.19
2019-03-21T20:11:25.515Z,63.95
2019-03-21T20:13:54.127Z,62.57
2019-03-21T20:16:22.811Z,66.16
2019-03-21T20:18:51.208Z,67.79
2019-03-21T20:21:19.974Z,67.27
2019-03-21T20:23:48.618Z,67.47
2019-03-21T20:26:17.069Z,66.73
2019-03-21T20:28:45.447Z,68.17
2019-03-21T20:31:14.079Z,69.61
2019-03-21T20:33:42.455Z,68.39
2019-03-21T20:36:10.924Z,69.61
2019-03-21T20:38:39.625Z,70.65
2019-03-21T20:41:08.001Z,70.28
2019-03-21T20:43:36.399Z,71.64
2019-03-21T20:46:04.785Z,70.66
2019-03-21T20:48:32.385Z,71.89
2019-03-21T20:51:00.839Z,71.94
2019-03-21T20:53:29.226Z,73.55
2019-03-21T20:55:57.959Z,74.35
2019-03-21T20:58:26.403Z,74.53
2019-03-21T21:00:54.869Z,74.23
2019-03-21T21:03:23.576Z,75.75
2019-03-21T21:05:52.290Z,76.06
2019-03-21T21:08:20.672Z,76.54
2019-03-21T21:10:49.061Z,77.62
2019-03-21T21:13:17.452Z,78.10
2019-03-21T21:15:45.866Z,78.24
2019-03-21T21:18:14.522Z,78.30
2019-03-21T21:20:42.902Z,78.14
2019-03-21T21:23:11.366Z,79.15
2019-03-21T21:25:39.763Z,79.38
2019-03-21T21:28:08.385Z,79.58
2019-03-21T21:30:36.773Z,79.18
2019-03-21T21:33:05.466Z,78.84
2019-03-21T21:35:34.087Z,80.49
2019-03-21T21:38:02.589Z,79.06
2019-03-21T21:40:33.025Z,79.76
2019-03-21T21:43:01.744Z,77.37
2019-03-21T21:45:30.188Z,76.25
2019-03-21T21:47:58.814Z,70.57
2019-03-21T21:50:27.254Z,74.74
2019-03-21T21:52:55.631Z,77.25
2019-03-21T21:55:24.029Z,76.18
2019-03-21T21:57:53.430Z,76.47
2019-03-21T22:00:24.063Z,77.34
2019-03-21T22:02:52.627Z,77.11
2019-03-21T22:05:21.145Z,78.38
2019-03-21T22:07:49.738Z,77.87
2019-03-21T22:10:18.206Z,78.37
2019-03-21T22:12:46.827Z,78.51
2019-03-21T22:15:16.060Z,76.00
2019-03-21T22:17:44.513Z,78.97
2019-03-21T22:20:15.264Z,81.30
2019-03-21T22:22:43.832Z,81.81
2019-03-21T22:25:12.764Z,81.06
2019-03-21T22:27:41.379Z,83.07
2019-03-21T22:30:20.443Z,83.82
2019-03-21T22:32:48.900Z,83.09
2019-03-21T22:35:17.308Z,83.99
2019-03-21T22:37:45.692Z,85.25
2019-03-21T22:40:19.843Z,80.71
2019-03-21T22:42:48.248Z,80.36
2019-03-21T22:45:17.811Z,83.83
2019-03-21T22:47:46.538Z,85.69
2019-03-21T22:50:17.070Z,84.63
2019-03-21T22:52:46.064Z,86.13
2019-03-21T22:55:14.713Z,84.85
2019-03-21T22:57:43.243Z,85.41
2019-03-21T23:00:14.592Z,85.29
2019-03-21T23:02:43.210Z,84.95
2019-03-21T23:05:11.742Z,86.34
2019-03-21T23:07:40.147Z,87.98
2019-03-21T23:10:09.771Z,86.62
2019-03-21T23:12:38.383Z,85.56
2019-03-21T23:15:09.491Z,87.56
2019-03-21T23:17:38.625Z,88.25
2019-03-21T23:20:09.494Z,88.87
2019-03-21T23:22:37.879Z,86.96
2019-03-21T23:25:07.595Z,89.72
2019-03-21T23:27:36.002Z,90.04
2019-03-21T23:30:07.499Z,86.55
2019-03-21T23:32:35.902Z,87.51
2019-03-21T23:35:05.926Z,86.47
2019-03-21T23:37:34.476Z,89.10
2019-03-21T23:40:03.636Z,84.75
2019-03-21T23:42:32.026Z,89.00
2019-03-21T23:45:00.489Z,88.82
2019-03-21T23:47:28.811Z,90.38
2019-03-21T23:49:57.201Z,90.53
2019-03-21T23:52:25.598Z,89.92
2019-03-21T23:54:54.228Z,90.88
2019-03-21T23:57:22.634Z,90.82
2019-03-21T23:59:51.014Z,91.75
